sensor_id;sensor_type;location;lat;lon;timestamp;temperature;humidity
12049;DHT22;6085;49.452;8.502;2022-12-26T00:01:57;10.80;99.90
12049;DHT22;6085;49.452;8.502;2022-12-26T00:06:00;10.90;99.90
12049;DHT22;6085;49.452;8.502;2022-12-26T00:10:03;11.00;99.90
12049;DHT22;6085;49.452;8.502;2022-12-26T00:14:07;11.20;99.90
12049;DHT22;6085;49.452;8.502;2022-12-26T00:18:10;11.10;99.90
12049;DHT22;6085;49.452;8.502;2022-12-26T00:22:12;11.10;99.90
12049;DHT22;6085;49.452;8.502;2022-12-26T00:26:16;11.10;99.90
12049;DHT22;6085;49.452;8.502;2022-12-26T00:30:18;11.10;99.90
12049;DHT22;6085;49.452;8.502;2022-12-26T00:34:22;11.30;99.90
12049;DHT22;6085;49.452;8.502;2022-12-26T00:38:23;11.20;99.90
12049;DHT22;6085;49.452;8.502;2022-12-26T00:42:25;11.20;99.90
12049;DHT22;6085;49.452;8.502;2022-12-26T00:46:27;11.30;99.90
12049;DHT22;6085;49.452;8.502;2022-12-26T00:50:30;11.60;99.90
12049;DHT22;6085;49.452;8.502;2022-12-26T00:54:32;11.70;99.90
12049;DHT22;6085;49.452;8.502;2022-12-26T00:58:34;11.70;99.90
12049;DHT22;6085;49.452;8.502;2022-12-26T01:02:36;11.80;99.90
12049;DHT22;6085;49.452;8.502;2022-12-26T01:06:41;11.80;99.90
12049;DHT22;6085;49.452;8.502;2022-12-26T01:10:45;11.80;99.90
12049;DHT22;6085;49.452;8.502;2022-12-26T01:14:47;11.80;99.90
12049;DHT22;6085;49.452;8.502;2022-12-26T01:18:49;11.80;99.90
12049;DHT22;6085;49.452;8.502;2022-12-26T01:22:52;11.90;99.90
12049;DHT22;6085;49.452;8.502;2022-12-26T01:26:54;11.90;99.90
12049;DHT22;6085;49.452;8.502;2022-12-26T01:31:00;12.00;99.90
12049;DHT22;6085;49.452;8.502;2022-12-26T01:35:02;12.00;99.90
12049;DHT22;6085;49.452;8.502;2022-12-26T01:39:05;11.90;99.90
12049;DHT22;6085;49.452;8.502;2022-12-26T01:43:10;11.80;99.90
12049;DHT22;6085;49.452;8.502;2022-12-26T01:47:12;11.80;99.90
12049;DHT22;6085;49.452;8.502;2022-12-26T01:51:15;11.80;99.90
12049;DHT22;6085;49.452;8.502;2022-12-26T01:55:20;11.70;99.90
12049;DHT22;6085;49.452;8.502;2022-12-26T01:59:25;11.70;99.90
12049;DHT22;6085;49.452;8.502;2022-12-26T02:03:28;11.60;99.90
12049;DHT22;6085;49.452;8.502;2022-12-26T02:07:47;11.60;99.90
12049;DHT22;6085;49.452;8.502;2022-12-26T02:11:53;11.50;99.90
12049;DHT22;6085;49.452;8.502;2022-12-26T02:15:57;11.30;99.90
12049;DHT22;6085;49.452;8.502;2022-12-26T02:20:03;11.20;99.90
12049;DHT22;6085;49.452;8.502;2022-12-26T02:24:40;11.20;99.90
12049;DHT22;6085;49.452;8.502;2022-12-26T02:29:17;11.10;99.90
12049;DHT22;6085;49.452;8.502;2022-12-26T02:33:40;10.90;99.90
12049;DHT22;6085;49.452;8.502;2022-12-26T02:37:53;10.90;99.90
12049;DHT22;6085;49.452;8.502;2022-12-26T02:42:05;10.70;99.90
12049;DHT22;6085;49.452;8.502;2022-12-26T02:46:18;10.60;99.90
12049;DHT22;6085;49.452;8.502;2022-12-26T02:50:51;10.50;99.90
12049;DHT22;6085;49.452;8.502;2022-12-26T02:55:15;10.50;99.90
12049;DHT22;6085;49.452;8.502;2022-12-26T02:59:45;10.70;99.90
12049;DHT22;6085;49.452;8.502;2022-12-26T03:04:10;10.90;99.90
12049;DHT22;6085;49.452;8.502;2022-12-26T03:08:34;10.90;99.90
12049;DHT22;6085;49.452;8.502;2022-12-26T03:12:58;11.00;99.90
12049;DHT22;6085;49.452;8.502;2022-12-26T03:17:17;11.00;99.90
12049;DHT22;6085;49.452;8.502;2022-12-26T03:21:24;11.10;99.90
12049;DHT22;6085;49.452;8.502;2022-12-26T03:25:35;11.10;99.90
12049;DHT22;6085;49.452;8.502;2022-12-26T03:29:59;11.00;99.90
12049;DHT22;6085;49.452;8.502;2022-12-26T03:34:21;11.00;99.90
12049;DHT22;6085;49.452;8.502;2022-12-26T03:38:25;11.00;99.90
12049;DHT22;6085;49.452;8.502;2022-12-26T03:42:35;11.00;99.90
12049;DHT22;6085;49.452;8.502;2022-12-26T03:47:04;11.00;99.90
12049;DHT22;6085;49.452;8.502;2022-12-26T03:51:32;10.90;99.90
12049;DHT22;6085;49.452;8.502;2022-12-26T03:55:59;10.80;99.90
12049;DHT22;6085;49.452;8.502;2022-12-26T04:00:23;10.80;99.90
12049;DHT22;6085;49.452;8.502;2022-12-26T04:04:45;10.90;99.90
12049;DHT22;6085;49.452;8.502;2022-12-26T04:09:08;11.20;99.90
12049;DHT22;6085;49.452;8.502;2022-12-26T04:13:37;11.30;99.90
12049;DHT22;6085;49.452;8.502;2022-12-26T04:18:04;11.50;99.90
12049;DHT22;6085;49.452;8.502;2022-12-26T04:22:33;11.70;99.90
12049;DHT22;6085;49.452;8.502;2022-12-26T04:26:58;11.70;99.90
12049;DHT22;6085;49.452;8.502;2022-12-26T04:31:24;11.60;99.90
12049;DHT22;6085;49.452;8.502;2022-12-26T04:35:49;11.50;99.90
12049;DHT22;6085;49.452;8.502;2022-12-26T04:40:14;11.50;99.90
12049;DHT22;6085;49.452;8.502;2022-12-26T04:44:36;11.60;99.90
12049;DHT22;6085;49.452;8.502;2022-12-26T04:48:42;11.70;99.90
12049;DHT22;6085;49.452;8.502;2022-12-26T04:53:03;11.80;99.90
12049;DHT22;6085;49.452;8.502;2022-12-26T04:57:05;11.80;99.90
12049;DHT22;6085;49.452;8.502;2022-12-26T05:01:07;11.90;99.90
12049;DHT22;6085;49.452;8.502;2022-12-26T05:05:25;12.00;99.90
12049;DHT22;6085;49.452;8.502;2022-12-26T05:09:49;12.00;99.90
12049;DHT22;6085;49.452;8.502;2022-12-26T05:13:52;12.10;99.90
12049;DHT22;6085;49.452;8.502;2022-12-26T05:17:53;12.10;99.90
12049;DHT22;6085;49.452;8.502;2022-12-26T05:22:13;12.10;99.90
12049;DHT22;6085;49.452;8.502;2022-12-26T05:26:33;12.20;99.90
12049;DHT22;6085;49.452;8.502;2022-12-26T05:30:53;12.20;99.90
12049;DHT22;6085;49.452;8.502;2022-12-26T05:34:55;12.20;99.90
12049;DHT22;6085;49.452;8.502;2022-12-26T05:38:56;12.20;99.90
12049;DHT22;6085;49.452;8.502;2022-12-26T05:42:59;12.20;99.90
12049;DHT22;6085;49.452;8.502;2022-12-26T05:47:01;12.20;99.90
12049;DHT22;6085;49.452;8.502;2022-12-26T05:51:03;12.20;99.90
12049;DHT22;6085;49.452;8.502;2022-12-26T05:55:06;12.20;99.90
12049;DHT22;6085;49.452;8.502;2022-12-26T05:59:09;12.20;99.90
12049;DHT22;6085;49.452;8.502;2022-12-26T06:03:11;12.30;99.90
12049;DHT22;6085;49.452;8.502;2022-12-26T06:07:12;12.30;99.90
12049;DHT22;6085;49.452;8.502;2022-12-26T06:11:15;12.30;99.90
12049;DHT22;6085;49.452;8.502;2022-12-26T06:15:18;12.30;99.90
12049;DHT22;6085;49.452;8.502;2022-12-26T06:19:20;12.30;99.90
12049;DHT22;6085;49.452;8.502;2022-12-26T06:23:22;12.20;99.90
12049;DHT22;6085;49.452;8.502;2022-12-26T06:27:23;12.20;99.90
12049;DHT22;6085;49.452;8.502;2022-12-26T06:31:27;12.20;99.90
12049;DHT22;6085;49.452;8.502;2022-12-26T06:35:28;12.20;99.90
12049;DHT22;6085;49.452;8.502;2022-12-26T06:39:30;12.10;99.90
12049;DHT22;6085;49.452;8.502;2022-12-26T06:43:32;12.00;99.90
12049;DHT22;6085;49.452;8.502;2022-12-26T06:47:35;12.00;99.90
12049;DHT22;6085;49.452;8.502;2022-12-26T06:51:37;11.90;99.90
12049;DHT22;6085;49.452;8.502;2022-12-26T06:55:39;11.90;99.90
12049;DHT22;6085;49.452;8.502;2022-12-26T06:59:41;11.80;99.90
12049;DHT22;6085;49.452;8.502;2022-12-26T07:03:44;11.80;99.90
12049;DHT22;6085;49.452;8.502;2022-12-26T07:07:49;11.70;99.90
12049;DHT22;6085;49.452;8.502;2022-12-26T07:11:51;11.50;99.90
12049;DHT22;6085;49.452;8.502;2022-12-26T07:15:57;11.40;99.90
12049;DHT22;6085;49.452;8.502;2022-12-26T07:20:01;11.30;99.90
12049;DHT22;6085;49.452;8.502;2022-12-26T07:24:03;11.30;99.90
12049;DHT22;6085;49.452;8.502;2022-12-26T07:28:05;11.30;99.90
12049;DHT22;6085;49.452;8.502;2022-12-26T07:32:06;11.40;99.90
12049;DHT22;6085;49.452;8.502;2022-12-26T07:36:09;11.40;99.90
12049;DHT22;6085;49.452;8.502;2022-12-26T07:40:12;11.40;99.90
12049;DHT22;6085;49.452;8.502;2022-12-26T07:44:13;11.40;99.90
12049;DHT22;6085;49.452;8.502;2022-12-26T07:48:15;11.40;99.90
12049;DHT22;6085;49.452;8.502;2022-12-26T07:52:18;11.40;99.90
12049;DHT22;6085;49.452;8.502;2022-12-26T07:56:20;11.30;99.90
12049;DHT22;6085;49.452;8.502;2022-12-26T08:00:22;11.30;99.90
12049;DHT22;6085;49.452;8.502;2022-12-26T08:04:24;11.30;99.90
12049;DHT22;6085;49.452;8.502;2022-12-26T08:08:28;11.30;99.90
12049;DHT22;6085;49.452;8.502;2022-12-26T08:12:31;11.20;99.90
12049;DHT22;6085;49.452;8.502;2022-12-26T08:16:33;11.20;99.90
12049;DHT22;6085;49.452;8.502;2022-12-26T08:20:35;11.10;99.90
12049;DHT22;6085;49.452;8.502;2022-12-26T08:24:38;11.00;99.90
12049;DHT22;6085;49.452;8.502;2022-12-26T08:28:41;11.00;99.90
12049;DHT22;6085;49.452;8.502;2022-12-26T08:32:42;11.00;99.90
12049;DHT22;6085;49.452;8.502;2022-12-26T08:36:44;10.90;99.90
12049;DHT22;6085;49.452;8.502;2022-12-26T08:40:53;10.80;99.90
12049;DHT22;6085;49.452;8.502;2022-12-26T08:44:56;10.70;99.90
12049;DHT22;6085;49.452;8.502;2022-12-26T08:48:58;10.70;99.90
12049;DHT22;6085;49.452;8.502;2022-12-26T08:53:00;10.60;99.90
12049;DHT22;6085;49.452;8.502;2022-12-26T08:57:04;10.60;99.90
12049;DHT22;6085;49.452;8.502;2022-12-26T09:01:07;10.60;99.90
12049;DHT22;6085;49.452;8.502;2022-12-26T09:05:09;10.70;99.90
12049;DHT22;6085;49.452;8.502;2022-12-26T09:09:11;10.70;99.90
12049;DHT22;6085;49.452;8.502;2022-12-26T09:13:14;10.70;99.90
12049;DHT22;6085;49.452;8.502;2022-12-26T09:17:19;10.70;99.90
12049;DHT22;6085;49.452;8.502;2022-12-26T09:21:20;10.70;99.90
12049;DHT22;6085;49.452;8.502;2022-12-26T09:25:24;10.70;99.90
12049;DHT22;6085;49.452;8.502;2022-12-26T09:29:27;10.80;99.90
12049;DHT22;6085;49.452;8.502;2022-12-26T09:33:30;10.90;99.90
12049;DHT22;6085;49.452;8.502;2022-12-26T09:37:33;10.90;99.90
12049;DHT22;6085;49.452;8.502;2022-12-26T09:41:50;11.00;99.90
12049;DHT22;6085;49.452;8.502;2022-12-26T09:46:00;11.00;99.90
12049;DHT22;6085;49.452;8.502;2022-12-26T09:50:10;11.00;99.90
12049;DHT22;6085;49.452;8.502;2022-12-26T09:54:17;11.00;99.90
12049;DHT22;6085;49.452;8.502;2022-12-26T09:58:24;11.10;99.90
12049;DHT22;6085;49.452;8.502;2022-12-26T10:02:28;11.10;99.90
12049;DHT22;6085;49.452;8.502;2022-12-26T10:06:36;11.10;99.90
12049;DHT22;6085;49.452;8.502;2022-12-26T10:10:45;11.20;99.90
12049;DHT22;6085;49.452;8.502;2022-12-26T10:14:54;11.30;99.90
12049;DHT22;6085;49.452;8.502;2022-12-26T10:19:19;11.50;99.90
12049;DHT22;6085;49.452;8.502;2022-12-26T10:23:30;11.50;99.90
12049;DHT22;6085;49.452;8.502;2022-12-26T10:27:38;11.50;99.90
12049;DHT22;6085;49.452;8.502;2022-12-26T10:31:45;11.60;99.90
12049;DHT22;6085;49.452;8.502;2022-12-26T10:35:48;11.70;99.90
12049;DHT22;6085;49.452;8.502;2022-12-26T10:39:53;11.70;99.90
12049;DHT22;6085;49.452;8.502;2022-12-26T10:43:56;11.70;99.90
12049;DHT22;6085;49.452;8.502;2022-12-26T10:47:58;11.80;99.90
12049;DHT22;6085;49.452;8.502;2022-12-26T10:52:02;11.80;99.90
12049;DHT22;6085;49.452;8.502;2022-12-26T10:56:05;11.80;99.90
12049;DHT22;6085;49.452;8.502;2022-12-26T11:00:13;11.80;99.90
12049;DHT22;6085;49.452;8.502;2022-12-26T11:04:19;11.80;99.90
12049;DHT22;6085;49.452;8.502;2022-12-26T11:08:25;11.70;99.90
12049;DHT22;6085;49.452;8.502;2022-12-26T11:12:36;11.70;99.90
12049;DHT22;6085;49.452;8.502;2022-12-26T11:16:39;11.70;99.90
12049;DHT22;6085;49.452;8.502;2022-12-26T11:20:41;11.70;99.90
12049;DHT22;6085;49.452;8.502;2022-12-26T11:24:44;11.80;99.90
12049;DHT22;6085;49.452;8.502;2022-12-26T11:28:46;11.80;99.90
12049;DHT22;6085;49.452;8.502;2022-12-26T11:32:50;11.90;99.90
12049;DHT22;6085;49.452;8.502;2022-12-26T11:36:52;11.90;99.90
12049;DHT22;6085;49.452;8.502;2022-12-26T11:40:55;12.00;99.90
12049;DHT22;6085;49.452;8.502;2022-12-26T11:45:12;12.10;99.90
12049;DHT22;6085;49.452;8.502;2022-12-26T11:49:22;12.40;99.90
12049;DHT22;6085;49.452;8.502;2022-12-26T11:53:24;12.60;99.90
12049;DHT22;6085;49.452;8.502;2022-12-26T11:57:29;12.70;99.90
12049;DHT22;6085;49.452;8.502;2022-12-26T12:01:31;12.80;99.90
12049;DHT22;6085;49.452;8.502;2022-12-26T12:05:40;13.00;99.90
12049;DHT22;6085;49.452;8.502;2022-12-26T12:09:49;13.10;99.90
12049;DHT22;6085;49.452;8.502;2022-12-26T12:14:09;13.00;99.90
12049;DHT22;6085;49.452;8.502;2022-12-26T12:18:21;12.90;99.90
12049;DHT22;6085;49.452;8.502;2022-12-26T12:22:46;12.90;99.90
12049;DHT22;6085;49.452;8.502;2022-12-26T12:26:57;13.10;99.90
12049;DHT22;6085;49.452;8.502;2022-12-26T12:31:08;13.40;99.90
12049;DHT22;6085;49.452;8.502;2022-12-26T12:35:27;13.40;99.90
12049;DHT22;6085;49.452;8.502;2022-12-26T12:39:40;13.40;99.90
12049;DHT22;6085;49.452;8.502;2022-12-26T12:43:52;13.40;99.90
12049;DHT22;6085;49.452;8.502;2022-12-26T12:48:11;13.30;99.90
12049;DHT22;6085;49.452;8.502;2022-12-26T12:52:25;13.20;99.90
12049;DHT22;6085;49.452;8.502;2022-12-26T12:56:36;13.00;99.90
12049;DHT22;6085;49.452;8.502;2022-12-26T13:00:41;12.80;99.90
12049;DHT22;6085;49.452;8.502;2022-12-26T13:04:49;12.70;99.90
12049;DHT22;6085;49.452;8.502;2022-12-26T13:08:54;12.60;99.90
12049;DHT22;6085;49.452;8.502;2022-12-26T13:12:59;12.70;99.90
12049;DHT22;6085;49.452;8.502;2022-12-26T13:17:08;12.70;99.90
12049;DHT22;6085;49.452;8.502;2022-12-26T13:21:14;12.70;99.90
12049;DHT22;6085;49.452;8.502;2022-12-26T13:25:17;12.80;99.90
12049;DHT22;6085;49.452;8.502;2022-12-26T13:29:34;12.90;99.90
12049;DHT22;6085;49.452;8.502;2022-12-26T13:33:36;13.00;99.90
12049;DHT22;6085;49.452;8.502;2022-12-26T13:37:58;13.00;99.90
12049;DHT22;6085;49.452;8.502;2022-12-26T13:42:24;12.90;99.90
12049;DHT22;6085;49.452;8.502;2022-12-26T13:46:56;12.70;99.90
12049;DHT22;6085;49.452;8.502;2022-12-26T13:51:00;12.50;99.90
12049;DHT22;6085;49.452;8.502;2022-12-26T13:55:30;12.40;99.90
12049;DHT22;6085;49.452;8.502;2022-12-26T13:59:39;12.30;99.90
12049;DHT22;6085;49.452;8.502;2022-12-26T14:03:53;12.30;99.90
12049;DHT22;6085;49.452;8.502;2022-12-26T14:08:06;12.20;99.90
12049;DHT22;6085;49.452;8.502;2022-12-26T14:12:42;12.10;99.90
12049;DHT22;6085;49.452;8.502;2022-12-26T14:16:51;12.00;99.90
12049;DHT22;6085;49.452;8.502;2022-12-26T14:21:35;12.00;99.90
12049;DHT22;6085;49.452;8.502;2022-12-26T14:25:49;12.00;99.90
12049;DHT22;6085;49.452;8.502;2022-12-26T14:30:16;11.90;99.90
12049;DHT22;6085;49.452;8.502;2022-12-26T14:34:29;11.90;99.90
12049;DHT22;6085;49.452;8.502;2022-12-26T14:38:43;11.90;99.90
12049;DHT22;6085;49.452;8.502;2022-12-26T14:43:10;11.90;99.90
12049;DHT22;6085;49.452;8.502;2022-12-26T14:47:34;11.80;99.90
12049;DHT22;6085;49.452;8.502;2022-12-26T14:51:38;11.80;99.90
12049;DHT22;6085;49.452;8.502;2022-12-26T14:55:50;11.70;99.90
12049;DHT22;6085;49.452;8.502;2022-12-26T15:00:14;11.50;99.90
12049;DHT22;6085;49.452;8.502;2022-12-26T15:09:13;11.20;99.90
12049;DHT22;6085;49.452;8.502;2022-12-26T15:13:38;11.20;99.90
12049;DHT22;6085;49.452;8.502;2022-12-26T15:17:49;11.20;99.90
12049;DHT22;6085;49.452;8.502;2022-12-26T15:22:13;11.20;99.90
12049;DHT22;6085;49.452;8.502;2022-12-26T15:35:32;11.10;99.90
12049;DHT22;6085;49.452;8.502;2022-12-26T15:39:41;11.00;99.90
12049;DHT22;6085;49.452;8.502;2022-12-26T15:43:59;10.80;99.90
12049;DHT22;6085;49.452;8.502;2022-12-26T15:48:19;10.80;99.90
12049;DHT22;6085;49.452;8.502;2022-12-26T15:52:37;10.90;99.90
12049;DHT22;6085;49.452;8.502;2022-12-26T15:56:49;11.00;99.90
12049;DHT22;6085;49.452;8.502;2022-12-26T16:00:55;11.00;99.90
12049;DHT22;6085;49.452;8.502;2022-12-26T16:09:38;11.00;99.90
12049;DHT22;6085;49.452;8.502;2022-12-26T16:13:53;10.90;99.90
12049;DHT22;6085;49.452;8.502;2022-12-26T16:22:31;10.80;99.90
12049;DHT22;6085;49.452;8.502;2022-12-26T16:26:47;10.40;99.90
12049;DHT22;6085;49.452;8.502;2022-12-26T16:30:49;10.20;99.90
12049;DHT22;6085;49.452;8.502;2022-12-26T16:34:51;10.10;99.90
12049;DHT22;6085;49.452;8.502;2022-12-26T16:38:55;10.00;99.90
12049;DHT22;6085;49.452;8.502;2022-12-26T16:43:00;9.80;99.90
12049;DHT22;6085;49.452;8.502;2022-12-26T16:47:05;9.60;99.90
12049;DHT22;6085;49.452;8.502;2022-12-26T16:51:34;9.50;99.90
12049;DHT22;6085;49.452;8.502;2022-12-26T16:55:45;9.40;99.90
12049;DHT22;6085;49.452;8.502;2022-12-26T16:59:50;9.40;99.90
12049;DHT22;6085;49.452;8.502;2022-12-26T17:03:57;9.30;99.90
12049;DHT22;6085;49.452;8.502;2022-12-26T17:08:00;9.20;99.90
12049;DHT22;6085;49.452;8.502;2022-12-26T17:12:06;9.10;99.90
12049;DHT22;6085;49.452;8.502;2022-12-26T17:16:08;9.00;99.90
12049;DHT22;6085;49.452;8.502;2022-12-26T17:20:32;8.90;99.90
12049;DHT22;6085;49.452;8.502;2022-12-26T17:24:35;8.80;99.90
12049;DHT22;6085;49.452;8.502;2022-12-26T17:28:38;8.80;99.90
12049;DHT22;6085;49.452;8.502;2022-12-26T17:32:44;8.70;99.90
12049;DHT22;6085;49.452;8.502;2022-12-26T17:36:46;8.80;99.90
12049;DHT22;6085;49.452;8.502;2022-12-26T17:40:50;8.80;99.90
12049;DHT22;6085;49.452;8.502;2022-12-26T17:44:54;8.80;99.90
12049;DHT22;6085;49.452;8.502;2022-12-26T17:48:57;8.70;99.90
12049;DHT22;6085;49.452;8.502;2022-12-26T17:53:04;8.70;99.90
12049;DHT22;6085;49.452;8.502;2022-12-26T17:57:14;8.70;99.90
12049;DHT22;6085;49.452;8.502;2022-12-26T18:01:18;8.60;99.90
12049;DHT22;6085;49.452;8.502;2022-12-26T18:05:20;8.60;99.90
12049;DHT22;6085;49.452;8.502;2022-12-26T18:09:25;8.50;99.90
12049;DHT22;6085;49.452;8.502;2022-12-26T18:13:27;8.50;99.90
12049;DHT22;6085;49.452;8.502;2022-12-26T18:17:32;8.50;99.90
12049;DHT22;6085;49.452;8.502;2022-12-26T18:21:34;8.40;99.90
12049;DHT22;6085;49.452;8.502;2022-12-26T18:25:36;8.50;99.90
12049;DHT22;6085;49.452;8.502;2022-12-26T18:29:38;8.50;99.90
12049;DHT22;6085;49.452;8.502;2022-12-26T18:33:43;8.60;99.90
12049;DHT22;6085;49.452;8.502;2022-12-26T18:37:47;8.60;99.90
12049;DHT22;6085;49.452;8.502;2022-12-26T18:41:49;8.40;99.90
12049;DHT22;6085;49.452;8.502;2022-12-26T18:45:51;8.40;99.90
12049;DHT22;6085;49.452;8.502;2022-12-26T18:49:54;8.40;99.90
12049;DHT22;6085;49.452;8.502;2022-12-26T18:53:56;8.40;99.90
12049;DHT22;6085;49.452;8.502;2022-12-26T18:57:58;8.40;99.90
12049;DHT22;6085;49.452;8.502;2022-12-26T19:02:00;8.40;99.90
12049;DHT22;6085;49.452;8.502;2022-12-26T19:06:03;8.40;99.90
12049;DHT22;6085;49.452;8.502;2022-12-26T19:10:08;8.30;99.90
12049;DHT22;6085;49.452;8.502;2022-12-26T19:14:16;8.30;99.90
12049;DHT22;6085;49.452;8.502;2022-12-26T19:18:18;8.20;99.90
12049;DHT22;6085;49.452;8.502;2022-12-26T19:22:21;8.10;99.90
12049;DHT22;6085;49.452;8.502;2022-12-26T19:26:23;8.00;99.90
12049;DHT22;6085;49.452;8.502;2022-12-26T19:30:25;7.90;99.90
12049;DHT22;6085;49.452;8.502;2022-12-26T19:34:27;8.00;99.90
12049;DHT22;6085;49.452;8.502;2022-12-26T19:38:30;8.00;99.90
12049;DHT22;6085;49.452;8.502;2022-12-26T19:42:32;8.00;99.90
12049;DHT22;6085;49.452;8.502;2022-12-26T19:46:36;7.90;99.90
12049;DHT22;6085;49.452;8.502;2022-12-26T19:50:38;7.70;99.90
12049;DHT22;6085;49.452;8.502;2022-12-26T19:54:41;7.70;99.90
12049;DHT22;6085;49.452;8.502;2022-12-26T19:58:44;7.50;99.90
12049;DHT22;6085;49.452;8.502;2022-12-26T20:02:46;7.50;99.90
12049;DHT22;6085;49.452;8.502;2022-12-26T20:06:48;7.80;99.90
12049;DHT22;6085;49.452;8.502;2022-12-26T20:10:51;8.00;99.90
12049;DHT22;6085;49.452;8.502;2022-12-26T20:14:53;8.20;99.90
12049;DHT22;6085;49.452;8.502;2022-12-26T20:18:55;8.30;99.90
12049;DHT22;6085;49.452;8.502;2022-12-26T20:22:57;8.40;99.90
12049;DHT22;6085;49.452;8.502;2022-12-26T20:27:00;8.40;99.90
12049;DHT22;6085;49.452;8.502;2022-12-26T20:31:04;8.50;99.90
12049;DHT22;6085;49.452;8.502;2022-12-26T20:35:07;8.60;99.90
12049;DHT22;6085;49.452;8.502;2022-12-26T20:39:11;8.60;99.90
12049;DHT22;6085;49.452;8.502;2022-12-26T20:43:15;8.50;99.90
12049;DHT22;6085;49.452;8.502;2022-12-26T20:47:17;8.40;99.90
12049;DHT22;6085;49.452;8.502;2022-12-26T20:51:21;8.40;99.90
12049;DHT22;6085;49.452;8.502;2022-12-26T20:55:23;8.30;99.90
12049;DHT22;6085;49.452;8.502;2022-12-26T20:59:27;8.20;99.90
12049;DHT22;6085;49.452;8.502;2022-12-26T21:03:29;8.10;99.90
12049;DHT22;6085;49.452;8.502;2022-12-26T21:07:31;7.90;99.90
12049;DHT22;6085;49.452;8.502;2022-12-26T21:11:35;7.70;99.90
12049;DHT22;6085;49.452;8.502;2022-12-26T21:15:39;7.50;99.90
12049;DHT22;6085;49.452;8.502;2022-12-26T21:19:41;7.20;99.90
12049;DHT22;6085;49.452;8.502;2022-12-26T21:23:43;7.00;99.90
12049;DHT22;6085;49.452;8.502;2022-12-26T21:27:45;6.80;99.90
12049;DHT22;6085;49.452;8.502;2022-12-26T21:31:49;6.70;99.90
12049;DHT22;6085;49.452;8.502;2022-12-26T21:35:51;6.50;99.90
12049;DHT22;6085;49.452;8.502;2022-12-26T21:39:54;6.20;99.90
12049;DHT22;6085;49.452;8.502;2022-12-26T21:43:55;6.10;99.90
12049;DHT22;6085;49.452;8.502;2022-12-26T21:47:59;5.90;99.90
12049;DHT22;6085;49.452;8.502;2022-12-26T21:52:00;5.70;99.90
12049;DHT22;6085;49.452;8.502;2022-12-26T21:56:04;5.70;99.90
12049;DHT22;6085;49.452;8.502;2022-12-26T22:00:07;5.60;99.90
12049;DHT22;6085;49.452;8.502;2022-12-26T22:04:11;5.30;99.90
12049;DHT22;6085;49.452;8.502;2022-12-26T22:08:23;5.00;99.90
12049;DHT22;6085;49.452;8.502;2022-12-26T22:12:27;5.00;99.90
12049;DHT22;6085;49.452;8.502;2022-12-26T22:16:50;5.30;99.90
12049;DHT22;6085;49.452;8.502;2022-12-26T22:20:53;5.60;99.90
12049;DHT22;6085;49.452;8.502;2022-12-26T22:24:55;5.70;99.90
12049;DHT22;6085;49.452;8.502;2022-12-26T22:28:57;5.70;99.90
12049;DHT22;6085;49.452;8.502;2022-12-26T22:32:59;5.80;99.90
12049;DHT22;6085;49.452;8.502;2022-12-26T22:37:02;6.00;99.90
12049;DHT22;6085;49.452;8.502;2022-12-26T22:41:08;6.10;99.90
12049;DHT22;6085;49.452;8.502;2022-12-26T22:45:10;6.20;99.90
12049;DHT22;6085;49.452;8.502;2022-12-26T22:49:12;6.10;99.90
12049;DHT22;6085;49.452;8.502;2022-12-26T22:53:16;5.90;99.90
12049;DHT22;6085;49.452;8.502;2022-12-26T22:57:18;5.50;99.90
12049;DHT22;6085;49.452;8.502;2022-12-26T23:01:22;5.40;99.90
12049;DHT22;6085;49.452;8.502;2022-12-26T23:05:24;5.40;99.90
12049;DHT22;6085;49.452;8.502;2022-12-26T23:09:28;5.50;99.90
12049;DHT22;6085;49.452;8.502;2022-12-26T23:13:30;5.30;99.90
12049;DHT22;6085;49.452;8.502;2022-12-26T23:17:34;5.20;99.90
12049;DHT22;6085;49.452;8.502;2022-12-26T23:21:57;5.20;99.90
12049;DHT22;6085;49.452;8.502;2022-12-26T23:26:01;5.10;99.90
12049;DHT22;6085;49.452;8.502;2022-12-26T23:30:04;5.20;99.90
12049;DHT22;6085;49.452;8.502;2022-12-26T23:34:20;5.20;99.90
12049;DHT22;6085;49.452;8.502;2022-12-26T23:38:22;5.00;99.90
12049;DHT22;6085;49.452;8.502;2022-12-26T23:42:25;5.00;99.90
12049;DHT22;6085;49.452;8.502;2022-12-26T23:46:27;4.90;99.90
12049;DHT22;6085;49.452;8.502;2022-12-26T23:50:29;4.80;99.90
12049;DHT22;6085;49.452;8.502;2022-12-26T23:54:31;4.70;99.90
12049;DHT22;6085;49.452;8.502;2022-12-26T23:58:35;4.50;99.90
